Time;durP1;ratioP1;P1;durP2;ratioP2;P2;SDS_P1;SDS_P2;PMS_P1;PMS_P2;Temp;Humidity;BMP_temperature;BMP_pressure;BME280_temperature;BME280_humidity;BME280_pressure;Samples;Min_cycle;Max_cycle;Signal;HPM_P1;HPM_P2
2023/03/17 00:00:45;;;;;;;3.80;2.37;;;8.40;64.40;;;;;;5024096;28;20469;-72
2023/03/17 00:03:19;;;;;;;5.00;3.30;;;8.40;64.90;;;;;;5023439;28;20440;-71
2023/03/17 00:05:45;;;;;;;3.33;2.40;;;8.40;64.60;;;;;;4985104;28;20691;-73
2023/03/17 00:08:21;;;;;;;4.10;2.60;;;8.40;65.80;;;;;;4987023;28;20404;-73
2023/03/17 00:10:48;;;;;;;3.90;2.60;;;8.40;64.90;;;;;;5000383;28;20745;-72
2023/03/17 00:13:14;;;;;;;4.03;2.40;;;8.30;65.40;;;;;;5004538;28;20494;-73
2023/03/17 00:15:41;;;;;;;4.87;3.37;;;8.30;66.30;;;;;;4990300;28;20422;-73
2023/03/17 00:18:13;;;;;;;4.63;2.43;;;8.30;66.20;;;;;;5000838;28;20830;-73
2023/03/17 00:20:39;;;;;;;4.30;2.53;;;8.30;66.20;;;;;;4999375;28;20215;-73
2023/03/17 00:23:11;;;;;;;4.77;2.30;;;8.30;66.20;;;;;;5000370;28;20534;-72
2023/03/17 00:25:41;;;;;;;2.77;1.83;;;8.30;66.20;;;;;;4983844;28;20494;-73
2023/03/17 00:28:22;;;;;;;4.20;2.20;;;8.20;67.10;;;;;;4997283;28;20538;-71
2023/03/17 00:30:51;;;;;;;2.90;2.20;;;8.30;67.60;;;;;;5001840;28;20504;-73
2023/03/17 00:33:18;;;;;;;3.10;2.30;;;8.20;67.60;;;;;;5002489;28;20504;-71
2023/03/17 00:35:45;;;;;;;3.23;2.53;;;8.20;68.10;;;;;;4981478;28;20965;-73
2023/03/17 00:38:16;;;;;;;4.73;2.60;;;8.20;68.60;;;;;;4983092;28;20420;-73
2023/03/17 00:40:43;;;;;;;4.57;2.50;;;8.20;68.70;;;;;;4983241;28;20443;-72
2023/03/17 00:43:09;;;;;;;5.13;2.37;;;8.10;68.90;;;;;;5000703;28;20473;-73
2023/03/17 00:45:36;;;;;;;3.30;1.90;;;8.20;69.00;;;;;;5001430;28;20486;-72
2023/03/17 00:48:02;;;;;;;3.13;2.33;;;8.10;69.50;;;;;;5001960;28;20407;-70
2023/03/17 00:50:28;;;;;;;4.67;2.80;;;8.00;70.00;;;;;;5000908;28;20534;-72
2023/03/17 00:52:56;;;;;;;3.60;3.10;;;8.00;70.30;;;;;;4998941;28;20431;-72
2023/03/17 00:55:25;;;;;;;2.90;1.90;;;7.90;70.80;;;;;;4998651;28;20430;-72
2023/03/17 00:57:51;;;;;;;5.03;3.00;;;7.90;71.20;;;;;;4999718;28;20525;-72
2023/03/17 01:00:24;;;;;;;5.80;2.33;;;7.90;71.50;;;;;;4981448;28;20478;-71
2023/03/17 01:02:54;;;;;;;4.83;2.83;;;7.80;72.00;;;;;;4998618;28;20423;-72
2023/03/17 01:05:21;;;;;;;3.83;2.13;;;7.90;72.20;;;;;;4998812;28;20723;-72
2023/03/17 01:07:51;;;;;;;3.03;2.40;;;7.90;72.10;;;;;;4998830;28;20422;-72
2023/03/17 01:10:26;;;;;;;2.80;2.20;;;7.90;72.10;;;;;;4996907;28;20831;-72
2023/03/17 01:12:54;;;;;;;3.73;2.30;;;7.90;72.60;;;;;;4997136;28;20418;-72
2023/03/17 01:15:21;;;;;;;3.13;2.67;;;8.00;72.00;;;;;;4997514;28;20419;-72
2023/03/17 01:17:49;;;;;;;3.60;2.33;;;8.00;71.80;;;;;;4980936;28;20427;-71
2023/03/17 01:20:21;;;;;;;3.27;2.43;;;7.90;72.30;;;;;;4997471;28;20439;-72
2023/03/17 01:22:49;;;;;;;3.63;2.83;;;7.90;72.70;;;;;;4997660;28;20490;-72
2023/03/17 01:25:16;;;;;;;5.77;2.90;;;7.90;72.90;;;;;;4996844;28;20548;-72
2023/03/17 01:27:42;;;;;;;3.93;2.60;;;7.90;73.90;;;;;;5000134;28;20420;-71
2023/03/17 01:30:22;;;;;;;3.00;2.30;;;7.80;72.90;;;;;;4980422;28;20443;-73
2023/03/17 01:32:48;;;;;;;3.83;2.73;;;7.90;73.40;;;;;;4997761;28;20425;-72
2023/03/17 01:35:14;;;;;;;4.10;3.00;;;7.90;73.40;;;;;;4997973;28;20430;-70
2023/03/17 01:37:40;;;;;;;5.10;2.57;;;7.90;72.80;;;;;;4997052;28;20418;-72
2023/03/17 01:40:08;;;;;;;8.37;3.00;;;7.80;72.80;;;;;;4997686;28;20948;-71
2023/03/17 01:42:34;;;;;;;3.23;2.57;;;7.80;73.10;;;;;;4980499;28;20260;-70
2023/03/17 01:45:04;;;;;;;3.43;2.53;;;7.80;73.60;;;;;;5001515;28;20470;-71
2023/03/17 01:47:30;;;;;;;3.17;2.20;;;7.80;73.80;;;;;;4996849;28;20414;-70
2023/03/17 01:50:06;;;;;;;5.37;3.40;;;7.80;73.60;;;;;;4996970;28;20439;-72
2023/03/17 01:52:35;;;;;;;4.73;2.93;;;7.70;73.80;;;;;;4996961;28;20656;-71
2023/03/17 01:55:10;;;;;;;3.37;2.30;;;7.70;74.20;;;;;;4980655;28;20436;-70
2023/03/17 01:57:50;;;;;;;3.00;2.53;;;7.70;74.60;;;;;;4981336;28;20589;-71
2023/03/17 02:00:23;;;;;;;5.13;2.83;;;7.70;74.60;;;;;;4982378;28;20547;-71
2023/03/17 02:02:54;;;;;;;4.00;2.43;;;7.70;74.90;;;;;;5001014;28;20411;-72
2023/03/17 02:05:23;;;;;;;4.50;2.50;;;7.60;74.90;;;;;;5001919;28;20745;-74
2023/03/17 02:07:48;;;;;;;3.53;2.57;;;7.50;75.60;;;;;;4986851;28;20415;-71
2023/03/17 02:10:18;;;;;;;2.67;2.30;;;7.60;75.50;;;;;;5002655;28;20470;-71
2023/03/17 02:12:46;;;;;;;4.63;2.90;;;7.60;75.40;;;;;;5003911;28;20195;-73
2023/03/17 02:15:12;;;;;;;4.70;2.80;;;7.70;75.80;;;;;;4978047;28;20426;-72
2023/03/17 02:17:38;;;;;;;3.73;2.40;;;7.60;75.50;;;;;;4981629;28;20424;-71
2023/03/17 02:20:18;;;;;;;6.67;2.70;;;7.60;75.70;;;;;;4966385;28;20455;-71
2023/03/17 02:22:52;;;;;;;3.80;2.73;;;7.60;76.00;;;;;;4976104;28;20622;-71
2023/03/17 02:25:19;;;;;;;4.37;2.83;;;7.50;76.30;;;;;;4974566;28;20467;-71
2023/03/17 02:27:49;;;;;;;3.77;3.17;;;7.50;77.20;;;;;;4947143;28;20914;-72
2023/03/17 02:30:18;;;;;;;4.57;2.43;;;7.60;77.10;;;;;;4965823;28;20447;-72
2023/03/17 02:32:43;;;;;;;3.87;2.67;;;7.60;76.20;;;;;;4977041;28;20416;-72
2023/03/17 02:35:10;;;;;;;3.30;2.70;;;7.50;77.10;;;;;;4959085;29;20413;-71
2023/03/17 02:37:36;;;;;;;4.57;3.53;;;7.60;76.40;;;;;;4944024;28;20215;-71
2023/03/17 02:40:04;;;;;;;3.67;2.13;;;7.60;76.20;;;;;;4958240;28;20443;-72
2023/03/17 02:42:31;;;;;;;4.93;2.70;;;7.60;76.10;;;;;;4977952;28;20443;-71
2023/03/17 02:44:57;;;;;;;3.47;2.93;;;7.50;76.50;;;;;;4961775;28;20500;-72
2023/03/17 02:47:23;;;;;;;3.20;2.57;;;7.40;77.00;;;;;;4962903;28;20446;-71
2023/03/17 02:49:49;;;;;;;3.23;2.50;;;7.40;77.40;;;;;;4996720;28;20208;-71
2023/03/17 02:52:15;;;;;;;5.10;3.67;;;7.40;78.50;;;;;;4999686;28;20180;-72
2023/03/17 02:54:41;;;;;;;4.20;2.50;;;7.30;77.90;;;;;;5000960;28;20506;-71
2023/03/17 02:57:07;;;;;;;6.07;3.00;;;7.20;78.50;;;;;;5004965;28;20411;-71
2023/03/17 02:59:33;;;;;;;6.37;3.60;;;7.20;79.50;;;;;;5001771;28;20465;-72
2023/03/17 03:01:59;;;;;;;3.67;2.77;;;7.20;80.00;;;;;;4998212;28;20190;-72
2023/03/17 03:04:26;;;;;;;4.17;2.90;;;7.20;80.00;;;;;;5000295;28;20529;-73
2023/03/17 03:06:52;;;;;;;4.93;2.70;;;7.20;79.80;;;;;;5000066;28;20407;-71
2023/03/17 03:09:19;;;;;;;4.67;3.00;;;7.30;78.70;;;;;;4999305;28;21010;-71
2023/03/17 03:11:45;;;;;;;3.23;2.93;;;7.30;79.40;;;;;;5000506;28;20465;-71
2023/03/17 03:14:11;;;;;;;5.30;2.80;;;7.20;79.60;;;;;;4993906;28;20443;-71
2023/03/17 03:16:37;;;;;;;3.10;2.50;;;7.20;79.50;;;;;;4978590;28;20455;-71
2023/03/17 03:19:03;;;;;;;7.93;2.80;;;7.10;79.70;;;;;;4994243;28;20744;-71
2023/03/17 03:21:29;;;;;;;4.27;2.43;;;7.10;80.50;;;;;;4996376;28;20261;-72
2023/03/17 03:23:55;;;;;;;7.57;3.20;;;7.00;80.90;;;;;;4996165;28;20486;-72
2023/03/17 03:26:21;;;;;;;7.63;2.50;;;7.00;81.60;;;;;;4996565;28;20422;-71
2023/03/17 03:28:46;;;;;;;4.50;3.17;;;7.00;81.20;;;;;;4996020;28;20245;-72
2023/03/17 03:31:12;;;;;;;3.30;2.97;;;7.10;81.80;;;;;;4996250;28;20290;-71
2023/03/17 03:33:39;;;;;;;6.70;2.63;;;7.00;80.90;;;;;;4996275;28;20191;-70
2023/03/17 03:36:06;;;;;;;3.10;2.40;;;7.10;81.00;;;;;;4995840;28;20418;-71
2023/03/17 03:38:32;;;;;;;3.67;2.50;;;7.00;80.80;;;;;;4996321;28;20411;-71
2023/03/17 03:40:57;;;;;;;4.63;2.70;;;7.10;80.90;;;;;;4995610;28;20759;-72
2023/03/17 03:43:23;;;;;;;3.50;2.37;;;7.10;80.70;;;;;;4993616;28;20208;-72
2023/03/17 03:45:49;;;;;;;4.47;3.20;;;7.10;80.80;;;;;;4976258;28;20484;-71
2023/03/17 03:48:15;;;;;;;3.53;3.00;;;7.00;81.20;;;;;;4994572;28;20184;-72
2023/03/17 03:50:40;;;;;;;3.07;2.40;;;6.90;81.70;;;;;;4995878;28;20229;-71
2023/03/17 03:53:06;;;;;;;4.47;3.63;;;7.00;82.00;;;;;;4995916;28;20418;-71
2023/03/17 03:55:31;;;;;;;5.23;2.97;;;7.10;81.70;;;;;;4999282;28;20607;-72
2023/03/17 03:57:57;;;;;;;6.30;3.00;;;6.90;81.30;;;;;;4995736;28;20184;-71
2023/03/17 04:00:23;;;;;;;4.70;2.90;;;6.90;82.20;;;;;;4996330;28;20210;-72
2023/03/17 04:02:49;;;;;;;6.23;2.87;;;6.80;83.10;;;;;;4998745;28;20176;-71
2023/03/17 04:05:17;;;;;;;3.87;2.23;;;6.80;83.50;;;;;;4995937;28;20603;-70
2023/03/17 04:07:43;;;;;;;4.33;2.90;;;6.70;84.00;;;;;;4998275;28;20465;-73
2023/03/17 04:10:10;;;;;;;3.90;2.87;;;6.70;84.30;;;;;;4977889;28;20598;-71
2023/03/17 04:12:37;;;;;;;4.10;3.00;;;6.80;84.50;;;;;;4998814;28;20422;-72
2023/03/17 04:15:04;;;;;;;4.57;2.90;;;6.80;84.30;;;;;;4987658;28;20431;-71
2023/03/17 04:17:30;;;;;;;4.20;3.03;;;6.80;83.70;;;;;;4982309;28;20418;-72
2023/03/17 04:19:56;;;;;;;4.10;2.73;;;6.90;82.80;;;;;;4998563;28;20464;-71
2023/03/17 04:22:21;;;;;;;6.20;3.17;;;6.90;82.50;;;;;;4998166;28;20706;-71
2023/03/17 04:24:47;;;;;;;4.07;2.57;;;6.90;82.50;;;;;;4998132;28;20215;-72
2023/03/17 04:27:14;;;;;;;5.97;3.07;;;6.90;82.20;;;;;;5015215;28;20282;-71
2023/03/17 04:29:41;;;;;;;6.07;3.90;;;6.90;82.30;;;;;;5004992;28;20211;-71
2023/03/17 04:32:07;;;;;;;6.13;3.47;;;6.80;82.50;;;;;;4998544;28;20451;-71
2023/03/17 04:34:33;;;;;;;3.50;2.60;;;6.80;84.00;;;;;;4998785;28;20458;-71
2023/03/17 04:36:58;;;;;;;4.73;2.70;;;6.80;82.80;;;;;;5000825;28;20426;-73
2023/03/17 04:39:24;;;;;;;5.47;3.73;;;6.80;83.30;;;;;;5003526;28;20207;-72
2023/03/17 04:41:50;;;;;;;6.43;2.83;;;6.80;83.90;;;;;;4999353;28;20551;-71
2023/03/17 04:44:15;;;;;;;5.87;3.23;;;6.80;83.40;;;;;;4991150;28;20219;-71
2023/03/17 04:46:41;;;;;;;4.13;3.33;;;6.70;83.90;;;;;;4963946;28;20219;-72
2023/03/17 04:49:08;;;;;;;4.87;3.03;;;6.80;83.50;;;;;;5002177;28;20506;-71
2023/03/17 04:51:35;;;;;;;5.03;3.30;;;6.80;83.20;;;;;;4983341;28;20184;-71
2023/03/17 04:54:01;;;;;;;4.13;3.20;;;6.80;83.40;;;;;;4991962;28;20430;-72
2023/03/17 04:56:28;;;;;;;5.17;2.50;;;6.80;82.80;;;;;;5001580;28;20706;-72
2023/03/17 04:58:54;;;;;;;5.03;3.20;;;6.80;82.60;;;;;;5001302;28;20423;-72
2023/03/17 05:01:20;;;;;;;7.80;3.90;;;6.90;82.90;;;;;;5001562;28;20207;-72
2023/03/17 05:03:46;;;;;;;6.63;3.50;;;7.00;81.90;;;;;;5001044;28;20625;-70
2023/03/17 05:06:11;;;;;;;3.70;3.20;;;6.90;82.00;;;;;;4998134;28;20423;-72
2023/03/17 05:08:37;;;;;;;6.00;3.07;;;7.00;81.70;;;;;;4998378;28;20275;-72
2023/03/17 05:11:04;;;;;;;5.03;2.60;;;6.90;82.00;;;;;;4998651;28;20646;-72
2023/03/17 05:13:29;;;;;;;4.23;3.10;;;6.80;82.60;;;;;;4998442;28;20504;-72
2023/03/17 05:15:55;;;;;;;4.53;3.50;;;6.80;83.00;;;;;;4997925;28;20433;-71
2023/03/17 05:18:23;;;;;;;4.60;3.40;;;6.80;83.10;;;;;;4998485;28;20194;-72
2023/03/17 05:20:49;;;;;;;4.00;2.83;;;6.90;82.80;;;;;;5000403;28;20454;-72
2023/03/17 05:23:14;;;;;;;4.57;2.93;;;6.80;82.60;;;;;;4998236;28;20838;-73
2023/03/17 05:25:40;;;;;;;5.67;3.43;;;6.80;82.80;;;;;;5001083;28;20184;-72
2023/03/17 05:28:07;;;;;;;7.53;3.93;;;6.80;83.10;;;;;;5017136;28;20268;-72
2023/03/17 05:30:35;;;;;;;7.33;4.10;;;6.80;83.50;;;;;;5004885;28;20215;-72
2023/03/17 05:33:01;;;;;;;5.43;3.23;;;6.90;82.60;;;;;;4972573;28;20403;-73
2023/03/17 05:35:26;;;;;;;4.60;3.00;;;6.90;82.70;;;;;;5000415;28;20910;-71
2023/03/17 05:37:52;;;;;;;3.43;3.13;;;7.00;82.20;;;;;;5005275;28;20168;-75
2023/03/17 05:40:18;;;;;;;6.97;3.37;;;6.90;81.80;;;;;;5004517;28;20212;-73
2023/03/17 05:42:44;;;;;;;4.10;2.90;;;6.90;82.00;;;;;;5004891;28;20191;-74
2023/03/17 05:45:10;;;;;;;4.03;2.90;;;6.90;82.40;;;;;;5024285;28;20246;-73
2023/03/17 05:47:36;;;;;;;4.03;3.40;;;6.90;82.80;;;;;;4998323;28;20419;-72
2023/03/17 05:50:03;;;;;;;5.90;3.77;;;6.90;82.40;;;;;;4997487;28;20462;-73
2023/03/17 05:52:31;;;;;;;6.03;3.47;;;6.90;82.50;;;;;;4997720;28;20206;-75
2023/03/17 05:54:58;;;;;;;6.47;3.80;;;6.90;81.90;;;;;;4997781;28;20412;-76
2023/03/17 05:57:23;;;;;;;4.47;3.20;;;7.00;81.50;;;;;;4982137;28;20450;-76
2023/03/17 05:59:49;;;;;;;4.80;3.23;;;7.10;80.00;;;;;;5016266;28;20298;-74
2023/03/17 06:02:16;;;;;;;5.90;3.37;;;7.10;80.00;;;;;;5015536;28;20199;-76
2023/03/17 06:04:42;;;;;;;6.13;3.00;;;7.20;80.20;;;;;;5012352;28;20471;-75
2023/03/17 06:07:09;;;;;;;5.17;3.30;;;7.20;80.30;;;;;;5011777;28;20423;-76
2023/03/17 06:09:39;;;;;;;6.03;3.43;;;7.20;80.10;;;;;;5000029;28;20443;-76
2023/03/17 06:12:06;;;;;;;4.07;3.10;;;7.20;79.30;;;;;;5002141;28;20467;-75
2023/03/17 06:14:32;;;;;;;3.83;2.63;;;7.30;79.20;;;;;;4978432;28;20431;-77
2023/03/17 06:16:59;;;;;;;3.93;3.10;;;7.30;79.70;;;;;;4998576;28;20450;-75
2023/03/17 06:19:30;;;;;;;5.17;3.37;;;7.40;79.50;;;;;;5000712;28;20215;-75
2023/03/17 06:22:01;;;;;;;4.50;3.27;;;7.40;78.70;;;;;;4985132;28;20434;-76
2023/03/17 06:24:28;;;;;;;12.80;4.33;;;7.30;78.40;;;;;;5013364;28;20466;-75
2023/03/17 06:26:53;;;;;;;4.93;2.80;;;7.50;78.00;;;;;;5012020;28;20442;-75
2023/03/17 06:29:19;;;;;;;3.67;2.80;;;7.50;78.00;;;;;;4995967;28;20234;-73
2023/03/17 06:31:49;;;;;;;5.63;3.47;;;7.60;77.50;;;;;;5016496;28;20155;-75
2023/03/17 06:34:20;;;;;;;6.60;3.43;;;7.70;76.20;;;;;;4975583;28;20187;-74
2023/03/17 06:36:46;;;;;;;3.50;2.30;;;7.80;74.00;;;;;;4960895;28;20437;-73
2023/03/17 06:39:12;;;;;;;6.83;3.40;;;7.90;74.20;;;;;;5008554;28;20422;-75
2023/03/17 06:41:38;;;;;;;7.27;3.80;;;7.90;73.30;;;;;;4972182;28;20466;-73
2023/03/17 06:44:04;;;;;;;4.80;3.57;;;8.10;72.70;;;;;;4998671;28;20858;-74
2023/03/17 06:46:31;;;;;;;7.37;3.70;;;8.10;71.00;;;;;;5007616;28;20399;-74
2023/03/17 06:48:57;;;;;;;4.00;2.97;;;8.20;71.30;;;;;;4989604;28;20412;-76
2023/03/17 06:51:23;;;;;;;4.20;3.30;;;8.20;70.40;;;;;;4990404;28;20884;-73
2023/03/17 06:53:49;;;;;;;5.37;3.00;;;8.30;69.60;;;;;;5007993;28;20426;-74
2023/03/17 06:56:15;;;;;;;3.97;3.30;;;8.30;70.00;;;;;;5009740;28;20415;-75
2023/03/17 06:58:41;;;;;;;5.63;4.30;;;8.30;69.00;;;;;;5011322;28;20623;-76
2023/03/17 07:01:07;;;;;;;4.87;3.27;;;8.40;68.80;;;;;;4992321;28;20218;-76
2023/03/17 07:03:34;;;;;;;4.47;3.00;;;8.40;67.90;;;;;;4992760;28;20908;-75
2023/03/17 07:06:00;;;;;;;3.87;3.17;;;8.40;68.00;;;;;;4991767;28;20415;-74
2023/03/17 07:08:29;;;;;;;3.87;3.47;;;8.50;68.00;;;;;;5007755;28;20876;-73
2023/03/17 07:10:56;;;;;;;7.07;3.43;;;8.50;67.20;;;;;;5005841;28;20545;-74
2023/03/17 07:13:22;;;;;;;5.60;2.80;;;8.50;67.40;;;;;;5005364;28;20419;-75
2023/03/17 07:15:50;;;;;;;4.40;2.87;;;8.50;67.90;;;;;;5007273;28;20437;-75
2023/03/17 07:18:16;;;;;;;4.73;3.30;;;8.60;67.70;;;;;;4992272;28;20407;-74
2023/03/17 07:20:42;;;;;;;4.90;3.57;;;8.60;67.10;;;;;;4991211;28;20442;-74
2023/03/17 07:23:29;;;;;;;6.70;2.77;;;8.70;66.40;;;;;;5007175;28;20426;-74
2023/03/17 07:25:56;;;;;;;4.03;3.00;;;8.80;66.10;;;;;;4991381;28;20423;-76
2023/03/17 07:28:21;;;;;;;4.27;2.80;;;8.80;65.60;;;;;;5002649;28;20410;-74
2023/03/17 07:30:48;;;;;;;5.60;3.33;;;8.90;65.20;;;;;;4997613;28;20443;-76
2023/03/17 07:33:21;;;;;;;4.50;3.73;;;9.00;64.30;;;;;;4961505;28;20188;-76
2023/03/17 07:35:49;;;;;;;5.97;3.00;;;9.10;63.00;;;;;;5011120;28;20407;-75
2023/03/17 07:38:17;;;;;;;3.73;3.30;;;9.10;62.50;;;;;;4975999;28;20423;-74
2023/03/17 07:40:49;;;;;;;3.77;2.80;;;9.20;62.50;;;;;;5008433;28;20469;-74
2023/03/17 07:43:17;;;;;;;3.67;3.27;;;9.20;62.40;;;;;;5007589;28;20408;-76
2023/03/17 07:45:44;;;;;;;3.43;2.33;;;9.30;61.60;;;;;;4973448;28;20435;-75
2023/03/17 07:48:13;;;;;;;5.07;2.90;;;9.40;61.00;;;;;;4991492;28;20866;-75
2023/03/17 07:50:41;;;;;;;3.90;2.80;;;9.60;60.50;;;;;;4979059;28;20431;-74
2023/03/17 07:53:08;;;;;;;3.13;2.77;;;9.60;60.80;;;;;;4982629;28;20415;-75
2023/03/17 07:55:35;;;;;;;4.23;3.30;;;9.70;59.70;;;;;;5015355;28;20445;-75
2023/03/17 07:58:01;;;;;;;5.67;2.90;;;9.90;59.30;;;;;;4995799;28;20430;-75
2023/03/17 08:00:27;;;;;;;5.53;3.00;;;10.00;58.20;;;;;;5014395;28;20526;-76
2023/03/17 08:02:55;;;;;;;5.73;3.63;;;10.20;57.80;;;;;;4997161;28;20196;-77
2023/03/17 08:05:21;;;;;;;6.20;3.37;;;10.30;57.20;;;;;;4979926;28;20447;-74
2023/03/17 08:07:46;;;;;;;7.03;4.00;;;10.50;57.10;;;;;;4978955;28;20411;-75
2023/03/17 08:10:12;;;;;;;7.80;3.90;;;10.60;56.20;;;;;;4998251;28;20231;-74
2023/03/17 08:12:39;;;;;;;5.30;3.13;;;10.70;55.60;;;;;;4980372;28;20172;-74
2023/03/17 08:15:06;;;;;;;5.03;2.97;;;10.70;55.70;;;;;;5002919;28;20446;-76
2023/03/17 08:17:38;;;;;;;6.80;3.27;;;10.70;55.90;;;;;;4981302;28;20439;-76
2023/03/17 08:20:04;;;;;;;4.77;3.97;;;10.80;55.70;;;;;;4995773;28;20480;-76
2023/03/17 08:22:31;;;;;;;5.83;3.73;;;10.80;55.60;;;;;;4968360;28;20423;-75
2023/03/17 08:24:57;;;;;;;8.77;4.23;;;11.00;55.10;;;;;;5015432;28;20460;-74
2023/03/17 08:27:23;;;;;;;3.80;3.40;;;11.10;54.70;;;;;;4997257;28;20830;-76
2023/03/17 08:30:12;;;;;;;4.67;2.90;;;11.20;54.70;;;;;;5015794;28;20465;-75
2023/03/17 08:32:38;;;;;;;7.63;4.40;;;11.40;54.80;;;;;;4996887;28;20422;-77
2023/03/17 08:35:09;;;;;;;6.97;3.27;;;11.50;54.10;;;;;;4996703;28;20526;-76
2023/03/17 08:37:36;;;;;;;3.60;2.70;;;11.70;54.00;;;;;;4995948;28;20423;-76
2023/03/17 08:40:04;;;;;;;5.20;2.93;;;11.90;53.30;;;;;;5014179;28;20431;-77
2023/03/17 08:42:30;;;;;;;5.83;3.40;;;12.10;53.10;;;;;;5014658;28;20395;-76
2023/03/17 08:44:57;;;;;;;9.20;3.80;;;12.30;52.20;;;;;;5014451;28;20738;-76
2023/03/17 08:47:24;;;;;;;3.63;3.10;;;12.40;52.30;;;;;;5016002;28;20427;-76
2023/03/17 08:49:52;;;;;;;4.30;3.47;;;12.40;51.90;;;;;;5015034;28;20450;-76
2023/03/17 08:52:18;;;;;;;6.23;3.70;;;12.40;51.80;;;;;;4997702;28;20178;-75
2023/03/17 08:54:44;;;;;;;11.93;3.70;;;12.40;51.40;;;;;;4996833;28;20450;-76
2023/03/17 08:57:09;;;;;;;4.23;3.57;;;12.40;51.80;;;;;;4992780;28;20417;-76
2023/03/17 08:59:36;;;;;;;3.80;3.20;;;12.60;51.30;;;;;;5011079;28;20484;-77
2023/03/17 09:02:01;;;;;;;5.70;3.60;;;12.70;51.20;;;;;;5002367;28;20194;-76
2023/03/17 09:04:27;;;;;;;3.10;2.23;;;12.80;50.60;;;;;;5016741;28;20469;-76
2023/03/17 09:06:54;;;;;;;8.60;5.47;;;12.70;51.00;;;;;;5013698;28;20183;-76
2023/03/17 09:09:20;;;;;;;7.90;3.80;;;12.70;51.00;;;;;;4995191;28;20188;-77
2023/03/17 09:11:46;;;;;;;6.10;4.00;;;12.80;51.10;;;;;;4979411;28;20427;-74
2023/03/17 09:14:11;;;;;;;7.70;4.30;;;12.80;50.70;;;;;;5016950;28;20852;-77
2023/03/17 09:16:37;;;;;;;6.17;4.10;;;12.90;50.70;;;;;;5012919;28;20483;-76
2023/03/17 09:19:03;;;;;;;6.37;3.70;;;12.90;50.70;;;;;;4994738;28;20175;-76
2023/03/17 09:21:32;;;;;;;7.50;3.40;;;12.90;51.00;;;;;;4995228;28;20250;-76
2023/03/17 09:23:57;;;;;;;6.53;3.53;;;12.90;50.90;;;;;;4979207;28;20212;-77
2023/03/17 09:26:24;;;;;;;7.47;4.13;;;12.90;51.00;;;;;;4981002;28;20436;-76
2023/03/17 09:28:52;;;;;;;7.33;3.90;;;13.00;50.80;;;;;;5006322;28;20188;-75
2023/03/17 09:31:20;;;;;;;7.03;2.87;;;13.00;51.00;;;;;;4963082;28;20427;-78
2023/03/17 09:33:46;;;;;;;3.90;2.43;;;13.10;51.10;;;;;;4995599;28;20504;-77
2023/03/17 09:36:13;;;;;;;6.60;2.60;;;13.20;50.40;;;;;;4997218;28;20467;-77
2023/03/17 09:38:43;;;;;;;4.40;2.90;;;13.30;50.20;;;;;;5001104;28;20391;-77
2023/03/17 09:41:18;;;;;;;3.30;2.47;;;13.40;50.20;;;;;;4957017;29;20445;-77
2023/03/17 09:44:15;;;;;;;3.90;2.77;;;13.50;48.90;;;;;;4941846;29;20479;-77
2023/03/17 09:46:46;;;;;;;4.30;2.67;;;13.70;48.50;;;;;;4927461;29;20449;-77
2023/03/17 09:49:19;;;;;;;4.10;2.00;;;13.70;48.30;;;;;;4925626;29;20417;-77
2023/03/17 09:51:50;;;;;;;4.20;2.20;;;13.80;48.10;;;;;;4940099;29;20453;-76
2023/03/17 09:54:33;;;;;;;2.90;2.43;;;13.90;48.30;;;;;;4939093;29;20426;-76
2023/03/17 09:57:20;;;;;;;4.07;2.47;;;13.90;47.50;;;;;;4939128;29;20433;-76
2023/03/17 09:59:52;;;;;;;4.27;2.10;;;13.90;47.90;;;;;;4936538;29;20484;-77
2023/03/17 10:02:27;;;;;;;3.07;2.40;;;14.10;47.60;;;;;;4974104;29;20437;-76
2023/03/17 10:04:56;;;;;;;6.90;2.80;;;14.20;47.20;;;;;;4958424;29;20498;-76
2023/03/17 10:07:46;;;;;;;4.13;2.37;;;14.20;47.00;;;;;;4958306;29;20417;-75
2023/03/17 10:10:35;;;;;;;4.00;2.60;;;14.30;46.80;;;;;;4944002;29;20468;-77
2023/03/17 10:13:26;;;;;;;6.50;2.50;;;14.60;46.80;;;;;;4928415;29;20408;-76
2023/03/17 10:16:16;;;;;;;3.70;2.40;;;14.80;46.30;;;;;;4978381;28;20463;-77
2023/03/17 10:18:56;;;;;;;3.93;2.97;;;14.90;46.20;;;;;;4952914;29;20430;-76
2023/03/17 10:21:31;;;;;;;8.00;2.00;;;15.10;45.70;;;;;;4954486;29;20979;-77
2023/03/17 10:24:03;;;;;;;4.20;2.20;;;15.20;45.50;;;;;;4945433;28;20460;-75
2023/03/17 10:27:03;;;;;;;3.57;1.90;;;15.30;45.30;;;;;;4997305;28;20467;-76
2023/03/17 10:29:45;;;;;;;5.37;2.40;;;15.50;45.50;;;;;;4993952;28;20455;-77
2023/03/17 10:32:13;;;;;;;2.87;2.13;;;15.60;45.30;;;;;;4978500;28;20457;-77
2023/03/17 10:34:40;;;;;;;2.93;1.70;;;15.80;45.00;;;;;;4963111;28;20464;-77
2023/03/17 10:37:12;;;;;;;6.07;3.53;;;15.70;44.80;;;;;;4962373;28;20424;-77
2023/03/17 10:39:47;;;;;;;5.53;2.77;;;15.80;44.40;;;;;;4977984;28;20435;-77
2023/03/17 10:42:24;;;;;;;5.03;2.20;;;15.80;44.70;;;;;;4992293;28;20403;-77
2023/03/17 10:45:02;;;;;;;5.70;2.43;;;15.70;44.60;;;;;;4978546;28;20520;-77
2023/03/17 10:47:32;;;;;;;3.20;1.90;;;15.70;44.80;;;;;;4960231;28;20459;-78
2023/03/17 10:50:34;;;;;;;2.67;2.20;;;15.70;44.90;;;;;;4977261;28;20504;-77
2023/03/17 10:53:26;;;;;;;5.70;3.67;;;15.70;45.20;;;;;;4957362;28;20434;-77
2023/03/17 10:55:58;;;;;;;3.83;3.10;;;15.70;45.10;;;;;;4977696;28;20432;-77
2023/03/17 10:58:27;;;;;;;4.50;2.43;;;15.60;44.20;;;;;;4978177;28;20396;-78
2023/03/17 11:00:59;;;;;;;4.63;2.77;;;15.40;44.70;;;;;;4990353;28;20442;-78
2023/03/17 11:03:34;;;;;;;5.13;2.77;;;15.30;45.00;;;;;;5001002;28;20505;-78
2023/03/17 11:06:02;;;;;;;3.17;2.00;;;15.10;45.40;;;;;;5016638;28;20407;-78
2023/03/17 11:08:34;;;;;;;3.10;1.93;;;15.00;45.90;;;;;;5016894;28;20383;-77
2023/03/17 11:11:32;;;;;;;3.17;2.70;;;14.90;46.30;;;;;;5417123;23;20497;-77
2023/03/17 11:14:14;;;;;;;5.07;2.20;;;14.90;46.10;;;;;;5032155;28;20488;-77
2023/03/17 11:17:11;;;;;;;4.10;2.67;;;15.00;46.00;;;;;;5013849;28;20482;-77
2023/03/17 11:19:57;;;;;;;2.83;2.00;;;15.00;46.90;;;;;;5038060;28;20449;-78
2023/03/17 11:22:39;;;;;;;3.60;2.13;;;14.90;46.10;;;;;;5012228;28;20425;-77
2023/03/17 11:25:22;;;;;;;7.17;2.50;;;15.00;46.10;;;;;;5026494;28;20536;-77
2023/03/17 11:27:56;;;;;;;7.17;2.70;;;15.20;46.10;;;;;;5064260;28;20479;-77
2023/03/17 11:30:43;;;;;;;5.50;2.60;;;15.10;46.10;;;;;;4842416;23;20489;-77
2023/03/17 11:33:33;;;;;;;9.93;2.83;;;15.30;45.80;;;;;;5021917;28;20427;-78
2023/03/17 11:36:27;;;;;;;4.23;2.10;;;15.20;46.00;;;;;;5068208;28;20453;-77
2023/03/17 11:38:59;;;;;;;6.10;2.30;;;15.20;46.20;;;;;;5006779;28;20455;-77
2023/03/17 11:41:40;;;;;;;6.03;2.20;;;15.30;46.20;;;;;;5045289;28;20422;-77
2023/03/17 11:44:26;;;;;;;4.80;2.60;;;15.40;46.10;;;;;;5045255;28;20478;-77
2023/03/17 11:47:41;;;;;;;5.00;2.53;;;15.70;45.70;;;;;;4964483;29;20424;-77
2023/03/17 11:50:32;;;;;;;7.13;2.10;;;15.80;45.50;;;;;;4963825;28;20456;-77
2023/03/17 11:53:47;;;;;;;3.20;2.43;;;16.00;45.50;;;;;;4962725;29;20540;-77
2023/03/17 11:56:37;;;;;;;6.70;1.90;;;16.10;45.00;;;;;;4885603;29;20437;-78
2023/03/17 11:59:09;;;;;;;4.30;1.80;;;16.20;45.20;;;;;;4901920;29;20448;-78
2023/03/17 12:02:09;;;;;;;3.30;1.90;;;16.20;45.20;;;;;;4900676;29;20428;-77
2023/03/17 12:04:54;;;;;;;7.03;2.23;;;16.30;45.10;;;;;;4874260;29;20463;-77
2023/03/17 12:07:38;;;;;;;3.43;2.10;;;16.50;44.70;;;;;;4904202;29;20409;-77
2023/03/17 12:19:28;;;;;;;2.60;2.10;;;17.20;44.50;;;;;;5057338;28;20513;-78
2023/03/17 12:25:34;;;;;;;3.23;2.20;;;17.50;42.80;;;;;;5270027;23;20513;-78
2023/03/17 12:31:11;;;;;;;3.90;2.10;;;17.50;43.30;;;;;;4981322;28;20524;-77
2023/03/17 12:34:06;;;;;;;2.43;1.67;;;17.70;43.50;;;;;;4947177;28;20509;-78
2023/03/17 12:36:36;;;;;;;5.00;2.00;;;17.80;42.90;;;;;;4968168;28;20419;-77
2023/03/17 12:39:15;;;;;;;4.47;2.50;;;18.00;42.50;;;;;;4984494;28;20422;-77
2023/03/17 12:42:24;;;;;;;3.00;2.00;;;18.00;42.50;;;;;;4995749;28;20405;-77
2023/03/17 12:48:38;;;;;;;3.93;2.10;;;17.80;42.40;;;;;;4978497;28;20436;-77
2023/03/17 12:51:19;;;;;;;5.80;2.13;;;17.90;42.10;;;;;;4983139;28;20549;-77
2023/03/17 12:53:52;;;;;;;4.43;2.63;;;17.80;42.30;;;;;;4999091;28;20393;-78
2023/03/17 12:56:52;;;;;;;2.43;1.80;;;17.90;42.70;;;;;;4956232;29;20417;-76
2023/03/17 12:59:32;;;;;;;3.23;2.47;;;17.80;42.90;;;;;;4959538;29;20570;-78
2023/03/17 13:02:36;;;;;;;4.00;2.40;;;17.70;42.60;;;;;;5056179;23;20494;-78
2023/03/17 13:05:15;;;;;;;4.03;2.13;;;17.80;42.80;;;;;;4968624;28;20446;-78
2023/03/17 13:07:56;;;;;;;3.87;2.33;;;17.90;43.10;;;;;;4967015;28;20421;-78
2023/03/17 13:10:45;;;;;;;4.30;2.70;;;17.90;43.00;;;;;;4936366;28;20434;-78
2023/03/17 13:13:41;;;;;;;3.47;2.50;;;17.80;43.00;;;;;;4966367;28;20413;-78
2023/03/17 13:16:38;;;;;;;5.63;2.50;;;17.70;43.20;;;;;;4966919;28;20406;-78
2023/03/17 13:19:33;;;;;;;4.47;2.33;;;17.80;43.30;;;;;;4939402;28;20440;-78
2023/03/17 13:22:30;;;;;;;6.00;2.43;;;17.90;43.10;;;;;;4984003;28;20436;-79
2023/03/17 13:25:28;;;;;;;4.70;2.50;;;17.80;42.90;;;;;;4882098;29;20461;-79
2023/03/17 13:28:11;;;;;;;4.07;2.77;;;17.80;43.30;;;;;;4863931;29;20425;-77
2023/03/17 13:30:58;;;;;;;2.20;1.90;;;17.80;43.40;;;;;;4865024;29;20475;-78
2023/03/17 13:37:08;;;;;;;6.67;2.50;;;17.80;43.10;;;;;;4529426;27;20484;-78